createdAt,value
2023-04-07T00:00:28.745Z,1028.18
2023-04-07T00:01:28.784Z,1028.14
2023-04-07T00:02:28.913Z,1028.11
2023-04-07T00:03:28.916Z,1028.09
2023-04-07T00:04:29.102Z,1028.12
2023-04-07T00:05:28.762Z,1028.08
2023-04-07T00:06:28.779Z,1028.07
2023-04-07T00:07:28.764Z,1028.06
2023-04-07T00:08:28.764Z,1028.08
2023-04-07T00:09:28.793Z,1028.09
2023-04-07T00:10:28.769Z,1028.08
2023-04-07T00:11:28.770Z,1028.07
2023-04-07T00:12:28.767Z,1028.07
2023-04-07T00:13:29.569Z,1028.04
2023-04-07T00:14:28.772Z,1028.06
2023-04-07T00:15:28.799Z,1028.02
2023-04-07T00:16:28.777Z,1028.02
2023-04-07T00:17:28.829Z,1027.99
2023-04-07T00:18:28.778Z,1027.96
2023-04-07T00:19:28.790Z,1027.99
2023-04-07T00:20:28.786Z,1027.97
2023-04-07T00:21:28.798Z,1027.97
2023-04-07T00:22:28.793Z,1027.96
2023-04-07T00:23:28.802Z,1027.97
2023-04-07T00:24:34.299Z,1027.97
2023-04-07T00:25:28.821Z,1027.93
2023-04-07T00:26:28.794Z,1027.96
2023-04-07T00:27:28.799Z,1027.98
2023-04-07T00:28:28.812Z,1027.97
2023-04-07T00:29:28.832Z,1027.94
2023-04-07T00:30:28.804Z,1027.95
2023-04-07T00:31:28.887Z,1027.93
2023-04-07T00:32:28.904Z,1027.93
2023-04-07T00:33:28.810Z,1027.96
2023-04-07T00:34:28.820Z,1027.92
2023-04-07T00:35:28.826Z,1027.97
2023-04-07T00:36:28.842Z,1027.93
2023-04-07T00:37:28.819Z,1027.93
2023-04-07T00:38:28.837Z,1027.94
2023-04-07T00:39:28.819Z,1027.92
2023-04-07T00:40:28.826Z,1027.95
2023-04-07T00:41:28.899Z,1027.93
2023-04-07T00:42:28.835Z,1027.94
2023-04-07T00:43:28.824Z,1027.91
2023-04-07T00:44:28.835Z,1027.91
2023-04-07T00:45:28.853Z,1027.91
2023-04-07T00:46:28.903Z,1027.94
2023-04-07T00:47:28.878Z,1027.93
2023-04-07T00:48:28.842Z,1027.91
2023-04-07T00:49:28.843Z,1027.89
2023-04-07T00:50:28.849Z,1027.91
2023-04-07T00:51:28.849Z,1027.92
2023-04-07T00:52:28.863Z,1027.92
2023-04-07T00:53:28.851Z,1027.89
2023-04-07T00:54:28.853Z,1027.89
2023-04-07T00:55:28.864Z,1027.89
2023-04-07T00:56:28.858Z,1027.89
2023-04-07T00:57:28.884Z,1027.87
2023-04-07T00:58:28.871Z,1027.90
2023-04-07T00:59:28.860Z,1027.91
2023-04-07T01:00:28.867Z,1027.93
2023-04-07T01:01:28.910Z,1027.90
2023-04-07T01:02:29.106Z,1027.89
2023-04-07T01:03:29.430Z,1027.92
2023-04-07T01:04:29.054Z,1027.89
2023-04-07T01:05:28.872Z,1027.88
2023-04-07T01:06:28.875Z,1027.92
2023-04-07T01:07:28.878Z,1027.88
2023-04-07T01:08:28.882Z,1027.88
2023-04-07T01:09:29.127Z,1027.94
2023-04-07T01:10:28.886Z,1027.93
2023-04-07T01:11:28.882Z,1027.92
2023-04-07T01:12:28.895Z,1027.93
2023-04-07T01:13:28.911Z,1027.91
2023-04-07T01:14:28.887Z,1027.91
2023-04-07T01:15:28.888Z,1027.94
2023-04-07T01:16:28.916Z,1027.93
2023-04-07T01:17:28.979Z,1027.89
2023-04-07T01:18:28.909Z,1027.85
2023-04-07T01:19:28.905Z,1027.87
2023-04-07T01:20:28.914Z,1027.88
2023-04-07T01:21:28.943Z,1027.88
2023-04-07T01:22:28.915Z,1027.86
2023-04-07T01:23:28.910Z,1027.90
2023-04-07T01:24:28.909Z,1027.89
2023-04-07T01:25:28.920Z,1027.87
2023-04-07T01:26:28.917Z,1027.90
2023-04-07T01:27:28.914Z,1027.89
2023-04-07T01:28:28.919Z,1027.90
2023-04-07T01:29:28.942Z,1027.88
2023-04-07T01:30:28.919Z,1027.82
2023-04-07T01:31:28.974Z,1027.84
2023-04-07T01:32:28.964Z,1027.87
2023-04-07T01:33:28.924Z,1027.86
2023-04-07T01:34:28.933Z,1027.81
2023-04-07T01:35:28.925Z,1027.82
2023-04-07T01:36:28.929Z,1027.78
2023-04-07T01:37:28.940Z,1027.83
2023-04-07T01:38:28.942Z,1027.82
2023-04-07T01:39:28.949Z,1027.79
2023-04-07T01:40:28.944Z,1027.78
2023-04-07T01:41:28.952Z,1027.81
2023-04-07T01:42:28.945Z,1027.78
2023-04-07T01:43:28.949Z,1027.83
2023-04-07T01:44:28.974Z,1027.78
2023-04-07T01:45:28.979Z,1027.81
2023-04-07T01:46:28.951Z,1027.79
2023-04-07T01:47:29.080Z,1027.80
2023-04-07T01:48:28.954Z,1027.82
2023-04-07T01:49:28.958Z,1027.79
2023-04-07T01:50:28.966Z,1027.80
2023-04-07T01:51:28.981Z,1027.83
2023-04-07T01:52:28.967Z,1027.79
2023-04-07T01:53:28.972Z,1027.79
2023-04-07T01:54:28.976Z,1027.78
2023-04-07T01:55:28.967Z,1027.77
2023-04-07T01:56:28.972Z,1027.81
2023-04-07T01:57:28.974Z,1027.77
2023-04-07T01:58:28.982Z,1027.80
2023-04-07T01:59:28.978Z,1027.85
2023-04-07T02:00:29.011Z,1027.81
2023-04-07T02:01:29.102Z,1027.82
2023-04-07T02:02:29.132Z,1027.84
2023-04-07T02:03:29.092Z,1027.84
2023-04-07T02:04:29.025Z,1027.85
2023-04-07T02:05:28.993Z,1027.80
2023-04-07T02:06:29.006Z,1027.87
2023-04-07T02:07:28.998Z,1027.85
2023-04-07T02:08:30.470Z,1027.84
2023-04-07T02:09:28.999Z,1027.84
2023-04-07T02:10:29.003Z,1027.90
2023-04-07T02:11:29.037Z,1027.87
2023-04-07T02:12:29.025Z,1027.87
2023-04-07T02:13:29.007Z,1027.86
2023-04-07T02:14:29.019Z,1027.85
2023-04-07T02:15:29.012Z,1027.84
2023-04-07T02:16:29.051Z,1027.83
2023-04-07T02:17:29.061Z,1027.81
2023-04-07T02:18:29.015Z,1027.82
2023-04-07T02:19:29.015Z,1027.77
2023-04-07T02:20:29.020Z,1027.77
2023-04-07T02:21:29.020Z,1027.75
2023-04-07T02:22:29.025Z,1027.77
2023-04-07T02:23:29.026Z,1027.79
2023-04-07T02:24:29.029Z,1027.75
2023-04-07T02:25:29.054Z,1027.74
2023-04-07T02:26:29.029Z,1027.76
2023-04-07T02:27:29.034Z,1027.74
2023-04-07T02:28:29.040Z,1027.77
2023-04-07T02:29:29.058Z,1027.72
2023-04-07T02:30:29.053Z,1027.77
2023-04-07T02:31:29.085Z,1027.73
2023-04-07T02:32:29.087Z,1027.76
2023-04-07T02:33:29.082Z,1027.74
2023-04-07T02:34:29.053Z,1027.74
2023-04-07T02:35:29.045Z,1027.74
2023-04-07T02:36:29.087Z,1027.74
2023-04-07T02:37:29.050Z,1027.70
2023-04-07T02:38:29.053Z,1027.76
2023-04-07T02:39:29.055Z,1027.74
2023-04-07T02:40:29.058Z,1027.79
2023-04-07T02:41:29.060Z,1027.77
2023-04-07T02:42:29.062Z,1027.74
2023-04-07T02:43:29.065Z,1027.78
2023-04-07T02:44:29.063Z,1027.75
2023-04-07T02:45:29.068Z,1027.78
2023-04-07T02:46:29.197Z,1027.75
2023-04-07T02:47:29.098Z,1027.78
2023-04-07T02:48:29.138Z,1027.77
2023-04-07T02:49:29.101Z,1027.75
2023-04-07T02:50:29.155Z,1027.75
2023-04-07T02:51:29.086Z,1027.76
2023-04-07T02:52:29.083Z,1027.76
2023-04-07T02:53:29.077Z,1027.73
2023-04-07T02:54:29.101Z,1027.76
2023-04-07T02:55:29.090Z,1027.73
2023-04-07T02:56:29.086Z,1027.73
2023-04-07T02:57:29.088Z,1027.73
2023-04-07T02:58:29.088Z,1027.76
2023-04-07T02:59:29.094Z,1027.77
2023-04-07T03:00:29.192Z,1027.75
2023-04-07T03:01:29.181Z,1027.75
2023-04-07T03:02:29.207Z,1027.76
2023-04-07T03:03:29.349Z,1027.76
2023-04-07T03:04:29.163Z,1027.70
2023-04-07T03:05:29.129Z,1027.75
2023-04-07T03:06:29.406Z,1027.76
2023-04-07T03:07:29.102Z,1027.74
2023-04-07T03:08:29.110Z,1027.75
2023-04-07T03:09:29.107Z,1027.75
2023-04-07T03:10:29.125Z,1027.77
2023-04-07T03:11:29.114Z,1027.76
2023-04-07T03:12:29.114Z,1027.73
2023-04-07T03:13:29.132Z,1027.77
2023-04-07T03:14:29.122Z,1027.77
2023-04-07T03:15:29.117Z,1027.74
2023-04-07T03:16:29.163Z,1027.74
2023-04-07T03:17:29.171Z,1027.71
2023-04-07T03:18:29.130Z,1027.73
2023-04-07T03:19:29.131Z,1027.74
2023-04-07T03:20:29.132Z,1027.73
2023-04-07T03:21:29.157Z,1027.71
2023-04-07T03:22:29.143Z,1027.75
2023-04-07T03:23:29.135Z,1027.70
2023-04-07T03:24:29.137Z,1027.73
2023-04-07T03:25:29.138Z,1027.72
2023-04-07T03:26:29.154Z,1027.75
2023-04-07T03:27:29.143Z,1027.73
2023-04-07T03:28:29.159Z,1027.78
2023-04-07T03:29:29.156Z,1027.71
2023-04-07T03:30:29.186Z,1027.73
2023-04-07T03:31:29.154Z,1027.76
2023-04-07T03:32:29.176Z,1027.77
2023-04-07T03:33:29.155Z,1027.79
2023-04-07T03:34:29.164Z,1027.77
2023-04-07T03:35:29.160Z,1027.78
2023-04-07T03:36:29.162Z,1027.81
2023-04-07T03:37:29.190Z,1027.79
2023-04-07T03:38:29.173Z,1027.81
2023-04-07T03:39:29.163Z,1027.82
2023-04-07T03:40:29.171Z,1027.80
2023-04-07T03:41:29.168Z,1027.80
2023-04-07T03:42:29.179Z,1027.82
2023-04-07T03:43:29.177Z,1027.79
2023-04-07T03:44:29.189Z,1027.77
2023-04-07T03:45:29.176Z,1027.81
2023-04-07T03:46:29.211Z,1027.79
2023-04-07T03:47:29.191Z,1027.80
2023-04-07T03:48:29.399Z,1027.82
2023-04-07T03:49:29.186Z,1027.78
2023-04-07T03:50:29.189Z,1027.76
2023-04-07T03:51:29.191Z,1027.78
2023-04-07T03:52:29.494Z,1027.81
2023-04-07T03:53:29.221Z,1027.76
2023-04-07T03:54:29.196Z,1027.79
2023-04-07T03:55:29.207Z,1027.75
2023-04-07T03:56:29.202Z,1027.76
2023-04-07T03:57:29.452Z,1027.77
2023-04-07T03:58:29.211Z,1027.75
2023-04-07T03:59:29.208Z,1027.79
2023-04-07T04:00:29.211Z,1027.80
2023-04-07T04:01:29.241Z,1027.78
2023-04-07T04:02:29.298Z,1027.78
2023-04-07T04:03:29.341Z,1027.80
2023-04-07T04:04:29.247Z,1027.80
2023-04-07T04:05:29.217Z,1027.77
2023-04-07T04:06:29.253Z,1027.78
2023-04-07T04:07:29.233Z,1027.82
2023-04-07T04:08:29.229Z,1027.76
2023-04-07T04:09:29.249Z,1027.77
2023-04-07T04:10:29.234Z,1027.80
2023-04-07T04:11:29.226Z,1027.78
2023-04-07T04:12:29.382Z,1027.82
2023-04-07T04:13:29.244Z,1027.80
2023-04-07T04:14:29.239Z,1027.84
2023-04-07T04:15:29.234Z,1027.81
2023-04-07T04:16:29.337Z,1027.81
2023-04-07T04:17:29.261Z,1027.81
2023-04-07T04:18:29.255Z,1027.83
2023-04-07T04:19:29.250Z,1027.78
2023-04-07T04:20:29.255Z,1027.78
2023-04-07T04:21:29.246Z,1027.75
2023-04-07T04:22:29.405Z,1027.78
2023-04-07T04:23:29.252Z,1027.77
2023-04-07T04:24:29.271Z,1027.77
2023-04-07T04:25:29.279Z,1027.78
2023-04-07T04:26:29.257Z,1027.76
2023-04-07T04:27:29.257Z,1027.76
2023-04-07T04:28:29.263Z,1027.77
2023-04-07T04:29:30.174Z,1027.76
2023-04-07T04:30:29.272Z,1027.80
2023-04-07T04:31:29.323Z,1027.77
2023-04-07T04:32:29.302Z,1027.80
2023-04-07T04:33:29.277Z,1027.78
2023-04-07T04:34:29.275Z,1027.77
2023-04-07T04:35:29.274Z,1027.76
2023-04-07T04:36:29.334Z,1027.72
2023-04-07T04:37:29.281Z,1027.73
2023-04-07T04:38:29.280Z,1027.75
2023-04-07T04:39:29.288Z,1027.75
2023-04-07T04:40:29.295Z,1027.74
2023-04-07T04:41:29.315Z,1027.75
2023-04-07T04:42:29.292Z,1027.75
2023-04-07T04:43:29.291Z,1027.75
2023-04-07T04:44:29.292Z,1027.74
2023-04-07T04:45:29.292Z,1027.74
2023-04-07T04:46:29.332Z,1027.73
2023-04-07T04:47:29.311Z,1027.73
2023-04-07T04:48:29.302Z,1027.75
2023-04-07T04:49:29.297Z,1027.81
2023-04-07T04:50:29.309Z,1027.77
2023-04-07T04:51:29.309Z,1027.78
2023-04-07T04:52:29.307Z,1027.78
2023-04-07T04:53:29.304Z,1027.79
2023-04-07T04:54:29.314Z,1027.79
2023-04-07T04:55:29.315Z,1027.84
2023-04-07T04:56:29.316Z,1027.86
2023-04-07T04:57:29.346Z,1027.83
2023-04-07T04:58:29.315Z,1027.87
2023-04-07T04:59:29.318Z,1027.85
2023-04-07T05:00:29.324Z,1027.85
2023-04-07T05:01:30.996Z,1027.87
2023-04-07T05:02:29.475Z,1027.83
2023-04-07T05:03:29.512Z,1027.86
2023-04-07T05:04:29.505Z,1027.85
2023-04-07T05:05:29.335Z,1027.89
2023-04-07T05:06:29.331Z,1027.82
2023-04-07T05:07:29.337Z,1027.84
2023-04-07T05:08:29.338Z,1027.83
2023-04-07T05:09:29.343Z,1027.82
2023-04-07T05:10:29.344Z,1027.88
2023-04-07T05:11:29.344Z,1027.85
2023-04-07T05:12:29.339Z,1027.88
2023-04-07T05:13:29.372Z,1027.90
2023-04-07T05:14:29.348Z,1027.84
2023-04-07T05:15:29.357Z,1027.86
2023-04-07T05:16:29.413Z,1027.85
2023-04-07T05:17:29.518Z,1027.83
2023-04-07T05:18:29.354Z,1027.85
2023-04-07T05:19:29.358Z,1027.87
2023-04-07T05:20:29.356Z,1027.83
2023-04-07T05:21:29.357Z,1027.86
2023-04-07T05:22:29.369Z,1027.84
2023-04-07T05:23:29.361Z,1027.89
2023-04-07T05:24:29.366Z,1027.87
2023-04-07T05:25:29.372Z,1027.85
2023-04-07T05:26:29.365Z,1027.90
2023-04-07T05:27:29.374Z,1027.83
2023-04-07T05:28:29.372Z,1027.87
2023-04-07T05:29:29.404Z,1027.86
2023-04-07T05:30:29.385Z,1027.88
2023-04-07T05:31:29.404Z,1027.90
2023-04-07T05:32:29.397Z,1027.92
2023-04-07T05:33:29.389Z,1027.93
2023-04-07T05:34:29.386Z,1027.87
2023-04-07T05:35:29.395Z,1027.89
2023-04-07T05:36:29.398Z,1027.90
2023-04-07T05:37:29.390Z,1027.92
2023-04-07T05:38:29.390Z,1027.94
2023-04-07T05:39:29.396Z,1027.93
2023-04-07T05:40:29.401Z,1027.90
2023-04-07T05:41:29.415Z,1027.89
2023-04-07T05:42:29.500Z,1027.92
2023-04-07T05:43:29.405Z,1027.95
2023-04-07T05:44:29.406Z,1027.93
2023-04-07T05:45:29.454Z,1027.94
2023-04-07T05:46:29.405Z,1027.95
2023-04-07T05:47:29.474Z,1027.96
2023-04-07T05:48:29.414Z,1027.94
2023-04-07T05:49:29.416Z,1027.94
2023-04-07T05:50:29.415Z,1027.98
2023-04-07T05:51:29.414Z,1027.94
2023-04-07T05:52:29.418Z,1027.95
2023-04-07T05:53:29.442Z,1027.96
2023-04-07T05:54:29.425Z,1027.93
2023-04-07T05:55:29.441Z,1027.97
2023-04-07T05:56:29.426Z,1027.99
2023-04-07T05:57:29.432Z,1027.99
2023-04-07T05:58:29.431Z,1028.02
2023-04-07T05:59:29.433Z,1028.01
2023-04-07T06:00:29.528Z,1028.05
2023-04-07T06:01:29.495Z,1028.02
2023-04-07T06:02:29.590Z,1028.03
2023-04-07T06:03:29.554Z,1028.04
2023-04-07T06:04:29.443Z,1028.04
2023-04-07T06:05:29.472Z,1028.01
2023-04-07T06:06:29.443Z,1028.07
2023-04-07T06:07:29.449Z,1028.08
2023-04-07T06:08:29.453Z,1028.07
2023-04-07T06:09:29.451Z,1028.06
2023-04-07T06:10:29.484Z,1028.11
2023-04-07T06:11:29.459Z,1028.10
2023-04-07T06:12:29.624Z,1028.10
2023-04-07T06:13:29.469Z,1028.07
2023-04-07T06:14:29.459Z,1028.10
2023-04-07T06:15:29.464Z,1028.11
2023-04-07T06:16:29.544Z,1028.11
2023-04-07T06:17:29.564Z,1028.13
2023-04-07T06:18:29.466Z,1028.15
2023-04-07T06:19:29.474Z,1028.14
2023-04-07T06:20:29.486Z,1028.11
2023-04-07T06:21:29.490Z,1028.12
2023-04-07T06:22:29.482Z,1028.17
2023-04-07T06:23:29.489Z,1028.17
2023-04-07T06:24:29.482Z,1028.17
2023-04-07T06:25:29.485Z,1028.21
2023-04-07T06:26:29.487Z,1028.25
2023-04-07T06:27:29.485Z,1028.22
2023-04-07T06:28:29.495Z,1028.22
2023-04-07T06:29:29.488Z,1028.24
2023-04-07T06:30:29.551Z,1028.21
2023-04-07T06:31:29.500Z,1028.21
2023-04-07T06:32:29.556Z,1028.27
2023-04-07T06:33:29.657Z,1028.22
2023-04-07T06:34:29.507Z,1028.22
2023-04-07T06:35:29.505Z,1028.28
2023-04-07T06:36:29.504Z,1028.29
2023-04-07T06:37:29.606Z,1028.27
2023-04-07T06:38:29.519Z,1028.31
2023-04-07T06:39:29.523Z,1028.32
2023-04-07T06:40:29.510Z,1028.31
2023-04-07T06:41:29.519Z,1028.36
2023-04-07T06:42:29.517Z,1028.32
2023-04-07T06:43:29.515Z,1028.31
2023-04-07T06:44:29.521Z,1028.32
2023-04-07T06:45:29.528Z,1028.30
2023-04-07T06:46:29.578Z,1028.31
2023-04-07T06:47:29.766Z,1028.35
2023-04-07T06:48:29.521Z,1028.37
2023-04-07T06:49:29.553Z,1028.29
2023-04-07T06:50:29.529Z,1028.33
2023-04-07T06:51:29.539Z,1028.35
2023-04-07T06:52:29.733Z,1028.41
2023-04-07T06:53:29.545Z,1028.37
2023-04-07T06:54:29.536Z,1028.34
2023-04-07T06:55:29.541Z,1028.35
2023-04-07T06:56:29.535Z,1028.34
2023-04-07T06:57:29.540Z,1028.35
2023-04-07T06:58:29.550Z,1028.41
2023-04-07T06:59:29.548Z,1028.40
2023-04-07T07:00:29.551Z,1028.37
2023-04-07T07:01:29.820Z,1028.37
2023-04-07T07:02:29.641Z,1028.36
2023-04-07T07:03:29.729Z,1028.38
2023-04-07T07:04:29.609Z,1028.38
2023-04-07T07:05:29.587Z,1028.39
2023-04-07T07:06:29.576Z,1028.40
2023-04-07T07:07:29.568Z,1028.37
2023-04-07T07:08:29.566Z,1028.37
2023-04-07T07:09:29.578Z,1028.41
2023-04-07T07:10:29.569Z,1028.44
2023-04-07T07:11:29.576Z,1028.39
2023-04-07T07:12:29.728Z,1028.41
2023-04-07T07:13:29.572Z,1028.39
2023-04-07T07:14:29.578Z,1028.39
2023-04-07T07:15:29.604Z,1028.42
2023-04-07T07:16:29.610Z,1028.39
2023-04-07T07:17:29.620Z,1028.38
2023-04-07T07:18:31.584Z,1028.44
2023-04-07T07:19:29.588Z,1028.40
2023-04-07T07:20:29.589Z,1028.47
2023-04-07T07:21:29.616Z,1028.40
2023-04-07T07:22:29.610Z,1028.45
2023-04-07T07:23:29.604Z,1028.46
2023-04-07T07:24:29.609Z,1028.41
2023-04-07T07:25:29.602Z,1028.43
2023-04-07T07:26:29.617Z,1028.43
2023-04-07T07:27:29.610Z,1028.48
2023-04-07T07:28:29.611Z,1028.46
2023-04-07T07:29:29.633Z,1028.48
2023-04-07T07:30:29.613Z,1028.50
2023-04-07T07:31:29.688Z,1028.50
2023-04-07T07:32:29.644Z,1028.50
2023-04-07T07:33:29.618Z,1028.50
2023-04-07T07:34:29.624Z,1028.50
2023-04-07T07:35:29.630Z,1028.51
2023-04-07T07:36:29.630Z,1028.58
2023-04-07T07:37:29.650Z,1028.52
2023-04-07T07:38:29.635Z,1028.53
2023-04-07T07:39:29.628Z,1028.52
2023-04-07T07:40:29.640Z,1028.56
2023-04-07T07:41:29.653Z,1028.54
2023-04-07T07:42:29.635Z,1028.54
2023-04-07T07:43:29.638Z,1028.53
2023-04-07T07:44:31.960Z,1028.55
2023-04-07T07:45:29.638Z,1028.56
2023-04-07T07:46:29.716Z,1028.57
2023-04-07T07:47:29.947Z,1028.56
2023-04-07T07:48:29.643Z,1028.62
2023-04-07T07:49:29.656Z,1028.63
2023-04-07T07:50:29.655Z,1028.63
2023-04-07T07:51:29.658Z,1028.59
2023-04-07T07:52:29.659Z,1028.60
2023-04-07T07:53:29.681Z,1028.60
2023-04-07T07:54:29.664Z,1028.60
2023-04-07T07:55:29.662Z,1028.64
2023-04-07T07:56:29.665Z,1028.69
2023-04-07T07:57:29.667Z,1028.70
2023-04-07T07:58:29.671Z,1028.68
2023-04-07T07:59:29.673Z,1028.68
2023-04-07T08:00:29.670Z,1028.68
2023-04-07T08:01:29.692Z,1028.66
2023-04-07T08:02:29.912Z,1028.66
2023-04-07T08:03:29.836Z,1028.68
2023-04-07T08:04:29.707Z,1028.67
2023-04-07T08:05:29.681Z,1028.68
2023-04-07T08:06:29.679Z,1028.72
2023-04-07T08:07:29.683Z,1028.72
2023-04-07T08:08:29.685Z,1028.69
2023-04-07T08:09:29.712Z,1028.71
2023-04-07T08:10:29.704Z,1028.78
2023-04-07T08:11:29.704Z,1028.71
2023-04-07T08:12:29.694Z,1028.74
2023-04-07T08:13:29.711Z,1028.76
2023-04-07T08:14:29.706Z,1028.74
2023-04-07T08:15:29.720Z,1028.82
2023-04-07T08:16:29.767Z,1028.78
2023-04-07T08:17:29.756Z,1028.77
2023-04-07T08:18:29.708Z,1028.80
2023-04-07T08:19:29.709Z,1028.76
2023-04-07T08:20:29.713Z,1028.79
2023-04-07T08:21:29.752Z,1028.76
2023-04-07T08:22:29.712Z,1028.75
2023-04-07T08:23:29.718Z,1028.76
2023-04-07T08:24:29.716Z,1028.70
2023-04-07T08:25:29.750Z,1028.70
2023-04-07T08:26:29.719Z,1028.73
2023-04-07T08:27:29.730Z,1028.76
2023-04-07T08:28:29.726Z,1028.74
2023-04-07T08:29:31.194Z,1028.73
2023-04-07T08:30:29.736Z,1028.76
2023-04-07T08:31:29.767Z,1028.77
2023-04-07T08:32:29.954Z,1028.74
2023-04-07T08:33:29.758Z,1028.72
2023-04-07T08:34:29.741Z,1028.77
2023-04-07T08:35:29.746Z,1028.75
2023-04-07T08:36:29.783Z,1028.72
2023-04-07T08:37:29.749Z,1028.72
2023-04-07T08:38:29.747Z,1028.76
2023-04-07T08:39:29.748Z,1028.72
2023-04-07T08:40:29.757Z,1028.75
2023-04-07T08:41:29.782Z,1028.73
2023-04-07T08:42:29.765Z,1028.72
2023-04-07T08:43:29.756Z,1028.71
2023-04-07T08:44:29.760Z,1028.75
2023-04-07T08:45:29.779Z,1028.72
2023-04-07T08:46:29.814Z,1028.74
2023-04-07T08:47:29.955Z,1028.69
2023-04-07T08:48:29.768Z,1028.68
2023-04-07T08:49:29.870Z,1028.72
2023-04-07T08:50:29.785Z,1028.69
2023-04-07T08:51:29.786Z,1028.72
2023-04-07T08:52:29.784Z,1028.74
2023-04-07T08:53:29.807Z,1028.72
2023-04-07T08:54:29.784Z,1028.70
2023-04-07T08:55:29.791Z,1028.72
2023-04-07T08:56:29.787Z,1028.76
2023-04-07T08:57:29.814Z,1028.65
2023-04-07T08:58:29.798Z,1028.69
2023-04-07T08:59:29.813Z,1028.64
2023-04-07T09:00:29.799Z,1028.70
2023-04-07T09:01:29.869Z,1028.66
2023-04-07T09:02:29.937Z,1028.70
2023-04-07T09:03:29.908Z,1028.68
2023-04-07T09:04:29.826Z,1028.69
2023-04-07T09:05:29.812Z,1028.66
2023-04-07T09:06:29.821Z,1028.71
2023-04-07T09:07:29.973Z,1028.74
2023-04-07T09:08:29.871Z,1028.70
2023-04-07T09:09:29.827Z,1028.58
2023-04-07T09:10:29.832Z,1028.57
2023-04-07T09:11:29.844Z,1028.64
2023-04-07T09:12:29.839Z,1028.56
2023-04-07T09:13:29.876Z,1028.59
2023-04-07T09:14:29.858Z,1028.58
2023-04-07T09:15:29.854Z,1028.55
2023-04-07T09:16:29.876Z,1028.54
2023-04-07T09:17:29.878Z,1028.57
2023-04-07T09:18:29.866Z,1028.60
2023-04-07T09:19:29.862Z,1028.56
2023-04-07T09:20:29.870Z,1028.58
2023-04-07T09:21:29.872Z,1028.56
2023-04-07T09:22:29.884Z,1028.56
2023-04-07T09:23:29.876Z,1028.56
2023-04-07T09:24:29.883Z,1028.58
2023-04-07T09:25:29.894Z,1028.56
2023-04-07T09:26:29.891Z,1028.58
2023-04-07T09:27:29.946Z,1028.54
2023-04-07T09:30:29.937Z,1028.59
2023-04-07T09:31:29.948Z,1028.56
2023-04-07T09:32:30.078Z,1028.56
2023-04-07T09:33:29.912Z,1028.62
2023-04-07T09:34:29.921Z,1028.57
2023-04-07T09:35:30.146Z,1028.54
2023-04-07T09:36:29.918Z,1028.57
2023-04-07T09:37:29.932Z,1028.61
2023-04-07T09:38:29.943Z,1028.56
2023-04-07T09:39:29.937Z,1028.54
2023-04-07T09:40:29.934Z,1028.59
2023-04-07T09:41:30.005Z,1028.58
2023-04-07T09:42:30.092Z,1028.63
2023-04-07T09:43:29.939Z,1028.56
2023-04-07T09:44:29.948Z,1028.59
2023-04-07T09:45:35.331Z,1028.62
2023-04-07T09:46:30.031Z,1028.56
2023-04-07T09:47:29.999Z,1028.57
2023-04-07T09:48:29.955Z,1028.56
2023-04-07T09:49:29.960Z,1028.56
2023-04-07T09:50:29.967Z,1028.59
2023-04-07T09:51:29.970Z,1028.57
2023-04-07T09:52:29.971Z,1028.54
2023-04-07T09:53:29.974Z,1028.57
2023-04-07T09:54:29.979Z,1028.60
2023-04-07T09:55:29.979Z,1028.58
2023-04-07T09:56:29.986Z,1028.60
2023-04-07T09:57:30.286Z,1028.60
2023-04-07T09:58:29.995Z,1028.60
2023-04-07T09:59:29.986Z,1028.63
2023-04-07T10:00:30.022Z,1028.61
2023-04-07T10:01:30.142Z,1028.65
2023-04-07T10:02:30.109Z,1028.63
2023-04-07T10:03:30.086Z,1028.63
2023-04-07T10:04:30.020Z,1028.64
2023-04-07T10:05:30.020Z,1028.65
2023-04-07T10:06:30.025Z,1028.64
2023-04-07T10:07:30.021Z,1028.64
2023-04-07T10:08:30.031Z,1028.57
2023-04-07T10:09:30.034Z,1028.63
2023-04-07T10:10:30.033Z,1028.57
2023-04-07T10:11:30.029Z,1028.57
2023-04-07T10:12:30.042Z,1028.60
2023-04-07T10:13:30.040Z,1028.59
2023-04-07T10:14:30.043Z,1028.53
2023-04-07T10:15:30.050Z,1028.53
2023-04-07T10:16:30.085Z,1028.56
2023-04-07T10:17:30.079Z,1028.55
2023-04-07T10:18:30.085Z,1028.49
2023-04-07T10:19:30.059Z,1028.53
2023-04-07T10:20:30.069Z,1028.52
2023-04-07T10:21:31.912Z,1028.53
2023-04-07T10:22:30.069Z,1028.51
2023-04-07T10:23:30.070Z,1028.54
2023-04-07T10:24:30.075Z,1028.57
2023-04-07T10:25:30.091Z,1028.56
2023-04-07T10:26:30.082Z,1028.60
2023-04-07T10:27:30.086Z,1028.60
2023-04-07T10:28:30.097Z,1028.56
2023-04-07T10:29:30.097Z,1028.53
2023-04-07T10:30:30.105Z,1028.58
2023-04-07T10:31:30.140Z,1028.60
2023-04-07T10:32:30.138Z,1028.61
2023-04-07T10:33:30.106Z,1028.62
2023-04-07T10:34:30.142Z,1028.61
2023-04-07T10:35:30.270Z,1028.65
2023-04-07T10:36:30.119Z,1028.63
2023-04-07T10:37:30.119Z,1028.59
2023-04-07T10:38:30.273Z,1028.73
2023-04-07T10:39:30.130Z,1028.64
2023-04-07T10:40:30.143Z,1028.65
2023-04-07T10:41:30.133Z,1028.65
2023-04-07T10:42:30.134Z,1028.66
2023-04-07T10:43:30.140Z,1028.66
2023-04-07T10:44:30.144Z,1028.64
2023-04-07T10:45:30.146Z,1028.67
2023-04-07T10:46:30.193Z,1028.64
2023-04-07T10:47:30.196Z,1028.67
2023-04-07T10:48:30.155Z,1028.63
2023-04-07T10:49:30.161Z,1028.63
2023-04-07T10:50:30.183Z,1028.65
2023-04-07T10:51:30.164Z,1028.66
2023-04-07T10:52:30.172Z,1028.57
2023-04-07T10:54:30.180Z,1028.60
2023-04-07T10:55:30.182Z,1028.57
2023-04-07T10:56:30.183Z,1028.63
2023-04-07T10:57:30.185Z,1028.59
2023-04-07T10:58:30.191Z,1028.65
2023-04-07T11:00:30.204Z,1028.54
2023-04-07T11:01:30.264Z,1028.49
2023-04-07T11:02:30.343Z,1028.55
2023-04-07T11:03:30.397Z,1028.71
2023-04-07T11:04:30.251Z,1028.59
2023-04-07T11:05:30.212Z,1028.64
2023-04-07T11:06:30.301Z,1028.58
2023-04-07T11:07:30.220Z,1028.60
2023-04-07T11:08:30.228Z,1028.59
2023-04-07T11:09:30.228Z,1028.64
2023-04-07T11:10:30.286Z,1028.61
2023-04-07T11:11:30.242Z,1028.66
2023-04-07T11:12:30.244Z,1028.57
2023-04-07T11:13:30.238Z,1028.56
2023-04-07T11:14:30.240Z,1028.58
2023-04-07T11:15:30.245Z,1028.55
2023-04-07T11:16:30.280Z,1028.60
2023-04-07T11:17:30.302Z,1028.56
2023-04-07T11:18:30.253Z,1028.52
2023-04-07T11:19:30.257Z,1028.57
2023-04-07T11:20:30.257Z,1028.55
2023-04-07T11:21:30.266Z,1028.51
2023-04-07T11:22:30.776Z,1028.57
2023-04-07T11:23:30.280Z,1028.60
2023-04-07T11:24:30.280Z,1028.60
2023-04-07T11:25:30.275Z,1028.60
2023-04-07T11:26:30.283Z,1028.62
2023-04-07T11:27:30.289Z,1028.59
2023-04-07T11:28:30.286Z,1028.68
2023-04-07T11:29:30.290Z,1028.68
2023-04-07T11:30:30.297Z,1028.62
2023-04-07T11:31:30.388Z,1028.61
2023-04-07T11:32:30.342Z,1028.58
2023-04-07T11:33:30.304Z,1028.59
2023-04-07T11:34:30.308Z,1028.60
2023-04-07T11:35:30.349Z,1028.59
2023-04-07T11:36:30.316Z,1028.59
2023-04-07T11:37:30.326Z,1028.59
2023-04-07T11:38:30.348Z,1028.57
2023-04-07T11:39:30.331Z,1028.59
2023-04-07T11:40:30.330Z,1028.61
2023-04-07T11:41:30.338Z,1028.61
2023-04-07T11:42:30.334Z,1028.56
2023-04-07T11:43:30.338Z,1028.57
2023-04-07T11:44:30.344Z,1028.68
2023-04-07T11:45:30.346Z,1028.61
2023-04-07T11:46:30.398Z,1028.60
2023-04-07T11:47:30.388Z,1028.58
2023-04-07T11:48:30.361Z,1028.59
2023-04-07T11:49:30.364Z,1028.64
2023-04-07T11:50:30.374Z,1028.57
2023-04-07T11:51:30.368Z,1028.63
2023-04-07T11:52:30.369Z,1028.61
2023-04-07T11:53:30.383Z,1028.54
2023-04-07T11:54:30.403Z,1028.63
2023-04-07T11:55:30.382Z,1028.61
2023-04-07T11:56:30.387Z,1028.67
2023-04-07T11:57:30.403Z,1028.63
2023-04-07T11:58:30.398Z,1028.66
2023-04-07T11:59:30.396Z,1028.66
2023-04-07T12:00:30.397Z,1028.69
2023-04-07T12:01:30.418Z,1028.70
2023-04-07T12:02:30.505Z,1028.76
2023-04-07T12:03:30.554Z,1028.64
2023-04-07T12:04:30.447Z,1028.71
2023-04-07T12:05:30.424Z,1028.68
2023-04-07T12:06:30.430Z,1028.66
2023-04-07T12:07:30.429Z,1028.64
2023-04-07T12:08:30.436Z,1028.67
2023-04-07T12:09:30.469Z,1028.61